Estación Meteorológica Peña el Pijo (Robertgarden) [ 12/14/19 08:41:57 CET ]

Fecha Hora Presion(HPa) Temp (°C) Humedad % Rocio (°C) Viento ( m/s) Direccion Lluvia 1Hora(mm) Lluvia 24H(mm) LLuvia Total(mm)
2019-Sep-18 01:01:48 1010.400 13.3 86 11.0         482.48
2019-Sep-18 02:01:52 1010.300 12.8 87 10.7         482.48
2019-Sep-18 03:01:45 1009.700 12.6 87 10.5         482.48
2019-Sep-18 04:01:50 1009.500 12.1 88 10.1         482.48
2019-Sep-18 05:01:46 1009.300 11.8 89 10.0         482.48
2019-Sep-18 06:05:06 1009.300 11.5 89 9.7         482.48
2019-Sep-18 07:01:38 1009.000 10.8 89 9.0         482.48
2019-Sep-18 08:01:52 1009.100 10.1 90 8.5         482.48
2019-Sep-18 09:01:45 1009.200 12.4 91 11.0         482.48
2019-Sep-18 10:02:13 1009.600 17.1 89 15.3         482.48
2019-Sep-18 11:01:42 1009.800 20.9 72 15.6         482.48
2019-Sep-18 12:01:42 1009.700 25.2 53 14.9         482.48
2019-Sep-18 13:01:48 1009.500 28.1 43 14.3         482.48
2019-Sep-18 14:01:52 1009.500 28.9 44 15.4         482.48
2019-Sep-18 15:01:45 1009.400 29.9 42 15.6         482.48
2019-Sep-18 16:01:57 1009.100 25.0 52 14.5         482.48
2019-Sep-18 17:01:44 1008.800 27.3 47 14.9         482.48
2019-Sep-18 18:01:48 1008.700 24.1 51 13.4         482.48
2019-Sep-18 19:02:06 1009.000 19.1 74 14.3     3.10 3.10 485.59
2019-Sep-18 20:01:45 1009.800 17.6 80 14.1       3.10 485.59
2019-Sep-18 21:01:58 1010.200 16.2 83 13.3       3.10 485.59
2019-Sep-18 22:01:45 1010.600 15.8 85 13.3       3.10 485.59
2019-Sep-18 23:01:53 1010.900 15.3 87 13.2       3.10 485.59

Temperatura Máxima:29°    Temperatura Mínima:10°
Presión Máxima:1010.900 Hpa    Presión Mínima:1008.700 Hpa


Volver